Holiday Shores, Illinois
Current Conditions -  °F | °C
As of 10:50 AM on Friday 31 Oct 2014 (Local Time) from KALN Reporting Station
Scattered Clouds Scattered Clouds  
Wind Chill: 33°   Ceiling: Unl
Heat Index: 41°   Visibility: 10mi
Dew Point: 19°   Wind: 15mph
Humidity: 42%   Direction: 340°NNW
Pressure: 30.27"   Gusts: 25mph
Location:  38.8031°N, 89.9742°W
Report Text: KALN 311550Z 34013G22KT 10SM SCT030 05/M07 A3027
Loading
Personal Weather Stations






























Interactive Weather Map
Tropical Storm Tracking
New forecast layout! Learn more

10-Day Weather Forecast

Advertisements
Track Severe Weather on mobile